createdAt,value
2018-06-14T00:00:35.150Z,46.30
2018-06-14T00:03:03.685Z,44.10
2018-06-14T00:05:32.794Z,44.00
2018-06-14T00:08:01.275Z,44.80
2018-06-14T00:10:30.025Z,44.60
2018-06-14T00:12:58.605Z,45.40
2018-06-14T00:15:27.072Z,45.50
2018-06-14T00:17:55.517Z,45.10
2018-06-14T00:20:24.057Z,44.90
2018-06-14T00:22:52.469Z,46.10
2018-06-14T00:25:20.993Z,45.20
2018-06-14T00:27:49.484Z,45.00
2018-06-14T00:30:17.940Z,45.20
2018-06-14T00:32:46.545Z,44.60
2018-06-14T00:35:15.005Z,46.30
2018-06-14T00:37:43.486Z,46.30
2018-06-14T00:40:11.946Z,46.40
2018-06-14T00:42:40.375Z,47.70
2018-06-14T00:45:09.055Z,48.60
2018-06-14T00:47:37.549Z,47.40
2018-06-14T00:50:06.592Z,47.60
2018-06-14T00:52:35.060Z,46.00
2018-06-14T00:55:03.497Z,46.30
2018-06-14T00:57:32.737Z,47.10
2018-06-14T01:00:01.194Z,46.60
2018-06-14T01:02:29.745Z,46.80
2018-06-14T01:04:58.225Z,47.70
2018-06-14T01:07:26.655Z,47.40
2018-06-14T01:09:55.124Z,49.00
2018-06-14T01:12:23.568Z,48.70
2018-06-14T01:14:52.053Z,48.30
2018-06-14T01:17:20.500Z,50.10
2018-06-14T01:19:48.944Z,50.00
2018-06-14T01:22:17.385Z,51.70
2018-06-14T01:24:45.864Z,51.80
2018-06-14T01:27:14.443Z,51.20
2018-06-14T01:29:43.001Z,50.20
2018-06-14T01:32:11.524Z,49.90
2018-06-14T01:34:39.929Z,51.10
2018-06-14T01:37:08.538Z,51.30
2018-06-14T01:39:36.972Z,50.20
2018-06-14T01:42:05.433Z,51.80
2018-06-14T01:44:33.927Z,53.60
2018-06-14T01:47:02.353Z,52.50
2018-06-14T01:49:30.870Z,51.00
2018-06-14T01:51:59.282Z,51.80
2018-06-14T01:54:27.759Z,52.80
2018-06-14T01:56:56.161Z,53.10
2018-06-14T01:59:24.620Z,52.60
2018-06-14T02:01:53.095Z,53.30
2018-06-14T02:04:21.695Z,54.40
2018-06-14T02:06:50.176Z,54.70
2018-06-14T02:09:18.657Z,53.30
2018-06-14T02:11:47.272Z,51.70
2018-06-14T02:14:15.716Z,51.70
2018-06-14T02:16:44.249Z,53.60
2018-06-14T02:19:12.716Z,53.30
2018-06-14T02:21:41.148Z,54.50
2018-06-14T02:24:09.573Z,55.00
2018-06-14T02:26:38.058Z,52.90
2018-06-14T02:29:06.504Z,54.70
2018-06-14T02:31:34.938Z,53.40
2018-06-14T02:34:03.389Z,55.60
2018-06-14T02:36:32.277Z,56.20
2018-06-14T02:39:00.773Z,55.90
2018-06-14T02:41:29.216Z,54.70
2018-06-14T02:43:57.737Z,53.90
2018-06-14T02:46:26.201Z,53.80
2018-06-14T02:48:54.684Z,54.00
2018-06-14T02:51:23.137Z,55.60
2018-06-14T02:53:51.572Z,54.80
2018-06-14T02:56:20.089Z,55.10
2018-06-14T02:58:48.565Z,53.90
2018-06-14T03:01:17.057Z,54.80
2018-06-14T03:03:45.513Z,53.20
2018-06-14T03:06:14.009Z,55.10
2018-06-14T03:08:42.490Z,56.10
2018-06-14T03:11:10.977Z,56.80
2018-06-14T03:13:39.558Z,56.60
2018-06-14T03:16:08.025Z,55.70
2018-06-14T03:18:36.437Z,56.10
2018-06-14T03:21:04.919Z,54.70
2018-06-14T03:23:33.462Z,57.00
2018-06-14T03:26:02.007Z,57.20
2018-06-14T03:28:30.428Z,54.70
2018-06-14T03:31:00.015Z,54.80
2018-06-14T03:35:56.612Z,55.00
2018-06-14T03:38:25.964Z,55.50
2018-06-14T03:40:54.520Z,56.70
2018-06-14T03:43:22.892Z,56.90
2018-06-14T03:45:51.380Z,56.50
2018-06-14T03:48:19.816Z,59.50
2018-06-14T03:50:48.261Z,58.70
2018-06-14T03:53:16.709Z,58.00
2018-06-14T03:55:45.234Z,55.60
2018-06-14T03:58:14.568Z,54.80
2018-06-14T04:00:43.165Z,54.40
2018-06-14T04:03:11.845Z,57.00
2018-06-14T04:05:40.333Z,54.80
2018-06-14T04:08:08.849Z,54.20
2018-06-14T04:10:37.468Z,54.50
2018-06-14T04:13:06.384Z,54.40
2018-06-14T04:15:34.940Z,54.70
2018-06-14T04:18:04.050Z,53.40
2018-06-14T04:20:34.008Z,53.80
2018-06-14T04:23:02.566Z,55.60
2018-06-14T04:25:31.036Z,55.70
2018-06-14T04:27:59.581Z,55.10
2018-06-14T04:30:28.027Z,53.80
2018-06-14T04:32:56.506Z,52.00
2018-06-14T04:35:25.063Z,53.00
2018-06-14T04:37:54.136Z,53.30
2018-06-14T04:40:22.577Z,53.30
2018-06-14T04:42:51.222Z,52.70
2018-06-14T04:45:19.708Z,55.90
2018-06-14T04:47:48.182Z,53.40
2018-06-14T04:50:17.266Z,53.80
2018-06-14T04:52:45.715Z,53.50
2018-06-14T04:55:14.224Z,51.60
2018-06-14T04:57:42.673Z,52.70
2018-06-14T05:00:11.169Z,53.80
2018-06-14T05:02:39.677Z,54.40
2018-06-14T05:07:36.762Z,55.10
2018-06-14T05:10:05.313Z,55.40
2018-06-14T05:12:33.852Z,51.60
2018-06-14T05:15:02.354Z,50.60
2018-06-14T05:17:30.829Z,50.40
2018-06-14T05:19:59.304Z,47.70
2018-06-14T05:22:27.756Z,46.90
2018-06-14T05:24:56.182Z,47.70
2018-06-14T05:27:24.838Z,49.30
2018-06-14T05:29:53.272Z,47.10
2018-06-14T05:32:21.794Z,46.40
2018-06-14T05:34:50.423Z,45.80
2018-06-14T05:37:19.217Z,45.70
2018-06-14T05:39:47.645Z,45.10
2018-06-14T05:42:16.255Z,45.30
2018-06-14T05:44:44.698Z,45.80
2018-06-14T05:47:13.196Z,46.00
2018-06-14T05:49:41.628Z,44.60
2018-06-14T05:52:10.134Z,44.50
2018-06-14T05:54:39.336Z,45.50
2018-06-14T05:57:07.863Z,45.20
2018-06-14T05:59:36.937Z,44.80
2018-06-14T06:02:05.374Z,43.60
2018-06-14T06:04:34.009Z,43.50
2018-06-14T06:07:02.778Z,43.50
2018-06-14T06:12:00.284Z,45.10
2018-06-14T06:14:29.296Z,44.50
2018-06-14T06:16:58.739Z,44.30
2018-06-14T06:19:28.550Z,42.90
2018-06-14T06:21:57.061Z,42.90
2018-06-14T06:26:55.057Z,42.40
2018-06-14T06:29:23.847Z,41.80
2018-06-14T06:31:52.343Z,41.80
2018-06-14T06:34:21.345Z,41.90
2018-06-14T06:36:50.403Z,43.30
2018-06-14T06:39:18.946Z,41.50
2018-06-14T06:41:47.696Z,41.30
2018-06-14T06:44:16.534Z,41.60
2018-06-14T06:46:45.168Z,39.70
2018-06-14T06:49:13.981Z,40.40
2018-06-14T06:51:43.036Z,42.70
2018-06-14T06:54:11.494Z,39.80
2018-06-14T06:56:40.299Z,40.70
2018-06-14T06:59:09.897Z,43.60
2018-06-14T07:01:38.382Z,40.00
2018-06-14T07:04:07.081Z,39.90
2018-06-14T07:06:35.529Z,39.90
2018-06-14T07:09:06.535Z,41.20
2018-06-14T07:11:35.236Z,38.10
2018-06-14T07:14:03.768Z,37.50
2018-06-14T07:16:32.247Z,38.00
2018-06-14T07:19:00.790Z,39.20
2018-06-14T07:21:29.275Z,38.30
2018-06-14T07:23:59.520Z,35.90
2018-06-14T07:26:27.960Z,36.90
2018-06-14T07:28:56.496Z,37.40
2018-06-14T07:31:25.367Z,37.90
2018-06-14T07:33:53.880Z,36.30
2018-06-14T07:36:22.353Z,37.10
2018-06-14T07:38:50.813Z,37.70
2018-06-14T07:41:19.297Z,38.30
2018-06-14T07:43:47.899Z,38.00
2018-06-14T07:48:44.476Z,34.00
2018-06-14T07:51:13.037Z,33.80
2018-06-14T07:53:41.519Z,34.70
2018-06-14T07:56:09.964Z,33.50
2018-06-14T07:58:38.438Z,34.90
2018-06-14T08:01:06.929Z,34.80
2018-06-14T08:03:35.368Z,33.90
2018-06-14T08:06:03.833Z,34.40
2018-06-14T08:08:32.388Z,33.90
2018-06-14T08:11:00.882Z,35.20
2018-06-14T08:13:29.334Z,36.00
2018-06-14T08:15:57.782Z,35.10
2018-06-14T08:18:26.257Z,34.90
2018-06-14T08:20:54.649Z,33.90
2018-06-14T08:23:23.144Z,34.40
2018-06-14T08:25:51.565Z,34.50
2018-06-14T08:28:20.059Z,33.50
2018-06-14T08:30:48.505Z,34.20
2018-06-14T08:33:17.108Z,33.90
2018-06-14T08:35:45.585Z,34.00
2018-06-14T08:38:14.044Z,34.30
2018-06-14T08:40:42.548Z,34.50
2018-06-14T08:43:11.077Z,33.20
2018-06-14T08:48:07.681Z,35.10
2018-06-14T08:50:36.357Z,35.20
2018-06-14T08:53:04.825Z,34.00
2018-06-14T08:55:33.786Z,34.00
2018-06-14T09:00:30.472Z,33.40
2018-06-14T09:02:58.950Z,33.30
2018-06-14T09:05:27.395Z,34.50
2018-06-14T09:07:55.789Z,35.20
2018-06-14T09:10:24.289Z,34.20
2018-06-14T09:12:52.708Z,33.40
2018-06-14T09:15:21.178Z,33.10
2018-06-14T09:17:49.646Z,33.60
2018-06-14T09:20:18.101Z,32.80
2018-06-14T09:22:46.545Z,32.50
2018-06-14T09:25:14.986Z,33.60
2018-06-14T09:27:43.516Z,32.70
2018-06-14T09:30:12.106Z,34.20
2018-06-14T09:32:40.585Z,33.50
2018-06-14T09:35:09.033Z,33.20
2018-06-14T09:37:37.665Z,35.10
2018-06-14T09:40:06.173Z,35.50
2018-06-14T09:42:34.621Z,34.80
2018-06-14T09:45:03.107Z,36.00
2018-06-14T09:47:31.573Z,35.10
2018-06-14T09:50:00.058Z,34.80
2018-06-14T09:52:28.565Z,34.60
2018-06-14T09:54:57.012Z,34.10
2018-06-14T09:57:25.497Z,37.00
2018-06-14T09:59:53.961Z,36.40
2018-06-14T10:02:22.485Z,35.40
2018-06-14T10:04:51.009Z,36.60
2018-06-14T10:07:19.528Z,35.50
2018-06-14T10:09:47.998Z,34.80
2018-06-14T10:12:16.738Z,34.10
2018-06-14T10:14:45.165Z,34.00
2018-06-14T10:17:13.678Z,33.20
2018-06-14T10:19:42.126Z,36.60
2018-06-14T10:22:10.574Z,37.20
2018-06-14T10:24:39.106Z,37.90
2018-06-14T10:27:07.602Z,38.10
2018-06-14T10:29:36.022Z,35.60
2018-06-14T10:32:04.546Z,35.20
2018-06-14T10:34:32.973Z,35.20
2018-06-14T10:37:01.442Z,35.20
2018-06-14T10:39:29.878Z,34.50
2018-06-14T10:41:58.304Z,35.70
2018-06-14T10:44:26.756Z,35.90
2018-06-14T10:46:55.326Z,37.30
2018-06-14T10:49:23.809Z,35.40
2018-06-14T10:51:52.541Z,34.70
2018-06-14T10:54:20.966Z,36.00
2018-06-14T10:56:49.389Z,35.10
2018-06-14T10:59:17.922Z,34.40
2018-06-14T11:01:46.445Z,35.90
2018-06-14T11:04:14.932Z,37.00
2018-06-14T11:06:43.462Z,34.10
2018-06-14T11:09:12.417Z,37.20
2018-06-14T11:11:42.021Z,34.20
2018-06-14T11:14:10.505Z,35.10
2018-06-14T11:16:39.010Z,34.00
2018-06-14T11:19:07.458Z,36.80
2018-06-14T11:21:35.940Z,34.90
2018-06-14T11:24:04.611Z,35.30
2018-06-14T11:26:33.069Z,34.70
2018-06-14T11:29:01.646Z,36.40
2018-06-14T11:31:30.109Z,34.60
2018-06-14T11:33:59.348Z,34.40
2018-06-14T11:36:27.802Z,35.70
2018-06-14T11:38:56.252Z,34.40
2018-06-14T11:41:24.916Z,34.70
2018-06-14T11:43:53.616Z,33.40
2018-06-14T11:46:22.089Z,33.70
2018-06-14T11:48:50.641Z,34.70
2018-06-14T11:51:19.198Z,34.50
2018-06-14T11:53:47.800Z,33.50
2018-06-14T11:56:17.033Z,33.80
2018-06-14T11:58:45.549Z,35.00
2018-06-14T12:01:14.085Z,34.00
2018-06-14T12:03:42.642Z,34.10
2018-06-14T12:06:11.073Z,33.70
2018-06-14T12:08:40.264Z,34.20
2018-06-14T12:11:09.149Z,33.70
2018-06-14T12:13:37.857Z,33.30
2018-06-14T12:16:06.357Z,35.20
2018-06-14T12:18:34.776Z,35.70
2018-06-14T12:21:03.217Z,35.00
2018-06-14T12:23:31.749Z,34.50
2018-06-14T12:26:00.181Z,36.00
2018-06-14T12:28:28.609Z,36.40
2018-06-14T12:30:57.088Z,36.00
2018-06-14T12:33:25.536Z,36.40
2018-06-14T12:35:54.033Z,35.80
2018-06-14T12:38:22.513Z,35.00
2018-06-14T12:40:51.106Z,38.50
2018-06-14T12:43:19.649Z,37.40
2018-06-14T12:45:48.468Z,34.70
2018-06-14T12:48:16.933Z,34.70
2018-06-14T12:50:46.237Z,33.00
2018-06-14T12:53:14.980Z,34.40
2018-06-14T12:55:43.700Z,35.50
2018-06-14T12:58:12.407Z,36.20
2018-06-14T13:00:41.249Z,35.40
2018-06-14T13:03:09.771Z,38.40
2018-06-14T13:08:06.534Z,39.60
2018-06-14T13:13:03.511Z,38.50
2018-06-14T13:15:32.221Z,38.90
2018-06-14T13:18:01.301Z,38.20
2018-06-14T13:20:30.445Z,38.90
2018-06-14T13:22:58.893Z,40.10
2018-06-14T13:25:27.489Z,40.40
2018-06-14T13:27:55.916Z,37.90
2018-06-14T13:30:25.146Z,38.20
2018-06-14T13:32:53.871Z,38.70
2018-06-14T13:35:22.355Z,38.50
2018-06-14T13:37:51.726Z,39.60
2018-06-14T13:40:20.663Z,38.30
2018-06-14T13:42:50.295Z,37.50
2018-06-14T13:45:18.784Z,37.70
2018-06-14T13:47:47.492Z,36.40
2018-06-14T13:50:16.071Z,37.70
2018-06-14T13:52:45.265Z,38.20
2018-06-14T13:55:13.764Z,39.50
2018-06-14T13:57:42.712Z,38.00
2018-06-14T14:00:11.271Z,38.00
2018-06-14T14:02:39.806Z,36.60
2018-06-14T14:05:08.646Z,36.30
2018-06-14T14:07:37.348Z,36.80
2018-06-14T14:10:05.888Z,36.60
2018-06-14T14:12:34.338Z,37.00
2018-06-14T14:15:02.823Z,35.70
2018-06-14T14:17:31.265Z,34.70
2018-06-14T14:19:59.660Z,34.50
2018-06-14T14:22:28.182Z,34.90
2018-06-14T14:24:56.657Z,35.70
2018-06-14T14:27:25.088Z,34.90
2018-06-14T14:29:53.653Z,35.30
2018-06-14T14:32:22.137Z,36.50
2018-06-14T14:34:50.685Z,36.70
2018-06-14T14:37:19.183Z,35.40
2018-06-14T14:39:47.654Z,35.20
2018-06-14T14:42:16.214Z,35.50
2018-06-14T14:44:44.792Z,32.80
2018-06-14T14:47:13.478Z,33.30
2018-06-14T14:52:10.097Z,33.90
2018-06-14T14:54:38.597Z,33.30
2018-06-14T14:57:07.691Z,32.90
2018-06-14T14:59:36.221Z,33.20
2018-06-14T15:02:04.695Z,33.50
2018-06-14T15:04:33.250Z,34.00
2018-06-14T15:07:01.685Z,32.30
2018-06-14T15:09:30.157Z,33.10
2018-06-14T15:11:58.784Z,32.00
2018-06-14T15:14:27.358Z,32.80
2018-06-14T15:16:56.367Z,32.90
2018-06-14T15:19:24.796Z,33.80
2018-06-14T15:21:53.644Z,33.90
2018-06-14T15:24:22.107Z,34.50
2018-06-14T15:26:51.160Z,34.20
2018-06-14T15:29:19.605Z,34.50
2018-06-14T15:31:48.149Z,33.70
2018-06-14T15:34:16.697Z,33.50
2018-06-14T15:36:45.883Z,32.90
2018-06-14T15:39:14.415Z,32.80
2018-06-14T15:41:43.084Z,32.30
2018-06-14T15:44:11.628Z,31.90
2018-06-14T15:49:08.321Z,31.80
2018-06-14T15:51:37.083Z,32.00
2018-06-14T15:54:05.568Z,32.70
2018-06-14T15:56:40.380Z,32.00
2018-06-14T15:59:10.101Z,31.30
2018-06-14T16:01:38.753Z,31.90
2018-06-14T16:04:07.649Z,31.30
2018-06-14T16:06:36.130Z,31.90
2018-06-14T16:09:07.729Z,32.30
2018-06-14T16:11:36.413Z,32.70
2018-06-14T16:16:33.282Z,34.30
2018-06-14T16:19:01.797Z,34.00
2018-06-14T16:21:30.285Z,34.70
2018-06-14T16:23:58.960Z,33.70
2018-06-14T16:26:27.588Z,34.10
2018-06-14T16:29:00.977Z,34.30
2018-06-14T16:31:29.669Z,34.10
2018-06-14T16:34:08.705Z,34.70
2018-06-14T16:36:37.172Z,34.60
2018-06-14T16:39:08.214Z,34.50
2018-06-14T16:41:37.409Z,35.60
2018-06-14T16:44:05.920Z,35.10
2018-06-14T16:46:34.402Z,35.30
2018-06-14T16:49:02.875Z,36.20
2018-06-14T16:51:31.410Z,36.00
2018-06-14T16:54:00.093Z,37.00
2018-06-14T16:56:28.588Z,36.60
2018-06-14T16:58:57.017Z,34.00
2018-06-14T17:01:25.626Z,33.50
2018-06-14T17:03:54.020Z,34.00
2018-06-14T17:06:22.680Z,34.20
2018-06-14T17:08:51.166Z,33.60
2018-06-14T17:11:19.636Z,33.50
2018-06-14T17:13:48.181Z,33.90
2018-06-14T17:16:16.597Z,34.10
2018-06-14T17:21:13.265Z,36.10
2018-06-14T17:23:41.748Z,35.10
2018-06-14T17:26:10.146Z,36.70
2018-06-14T17:28:38.728Z,35.90
2018-06-14T17:31:07.345Z,36.30
2018-06-14T17:33:36.037Z,35.50
2018-06-14T17:36:04.660Z,36.20
2018-06-14T17:38:33.119Z,36.80
2018-06-14T17:41:01.694Z,36.90
2018-06-14T17:43:30.106Z,37.60
2018-06-14T17:45:58.593Z,38.30
2018-06-14T17:48:27.014Z,39.30
2018-06-14T17:50:55.493Z,40.10
2018-06-14T17:53:24.021Z,40.80
2018-06-14T17:55:52.624Z,40.80
2018-06-14T17:58:21.195Z,39.50
2018-06-14T18:00:49.985Z,40.10
2018-06-14T18:03:18.482Z,39.70
2018-06-14T18:05:46.982Z,39.10
2018-06-14T18:08:15.407Z,37.60
2018-06-14T18:10:43.878Z,36.90
2018-06-14T18:13:12.433Z,38.40
2018-06-14T18:15:40.978Z,39.90
2018-06-14T18:18:09.554Z,38.50
2018-06-14T18:20:38.020Z,37.80
2018-06-14T18:23:06.511Z,38.90
2018-06-14T18:25:34.989Z,39.10
2018-06-14T18:28:03.454Z,38.70
2018-06-14T18:30:32.042Z,38.00
2018-06-14T18:33:00.496Z,37.80
2018-06-14T18:35:28.970Z,38.40
2018-06-14T18:37:57.488Z,38.10
2018-06-14T18:40:26.058Z,38.50
2018-06-14T18:42:54.520Z,38.80
2018-06-14T18:45:23.646Z,38.60
2018-06-14T18:47:52.096Z,39.00
2018-06-14T18:50:21.413Z,38.30
2018-06-14T18:52:49.880Z,38.40
2018-06-14T18:55:18.426Z,38.30
2018-06-14T18:57:46.995Z,38.70
2018-06-14T19:00:15.499Z,38.60
2018-06-14T19:02:45.262Z,38.50
2018-06-14T19:05:13.701Z,38.40
2018-06-14T19:07:42.311Z,39.20
2018-06-14T19:10:10.948Z,39.90
2018-06-14T19:12:39.401Z,40.30
2018-06-14T19:15:08.005Z,40.30
2018-06-14T19:17:36.633Z,40.30
2018-06-14T19:20:05.006Z,40.00
2018-06-14T19:22:34.576Z,40.50
2018-06-14T19:25:03.049Z,39.90
2018-06-14T19:27:31.516Z,40.40
2018-06-14T19:29:59.990Z,40.70
2018-06-14T19:32:28.437Z,40.70
2018-06-14T19:34:56.884Z,40.70
2018-06-14T19:37:25.393Z,40.90
2018-06-14T19:39:53.910Z,40.70
2018-06-14T19:42:22.721Z,40.70
2018-06-14T19:44:51.250Z,41.30
2018-06-14T19:47:20.271Z,41.30
2018-06-14T19:49:48.710Z,41.40
2018-06-14T19:52:17.267Z,40.80
2018-06-14T19:54:45.771Z,41.00
2018-06-14T19:57:14.244Z,41.10
2018-06-14T19:59:42.741Z,41.00
2018-06-14T20:02:11.255Z,41.00
2018-06-14T20:04:39.885Z,40.80
2018-06-14T20:07:08.620Z,40.50
2018-06-14T20:09:37.025Z,41.20
2018-06-14T20:12:05.636Z,41.00
2018-06-14T20:14:34.228Z,40.80
2018-06-14T20:17:02.924Z,40.80
2018-06-14T20:19:31.537Z,41.00
2018-06-14T20:22:01.386Z,40.70
2018-06-14T20:24:29.844Z,41.40
2018-06-14T20:26:59.062Z,41.20
2018-06-14T20:29:27.769Z,41.50
2018-06-14T20:31:56.225Z,41.40
2018-06-14T20:34:24.769Z,41.80
2018-06-14T20:36:53.437Z,42.10
2018-06-14T20:41:50.159Z,41.50
2018-06-14T20:46:46.756Z,41.90
2018-06-14T20:51:43.387Z,41.30
2018-06-14T20:54:11.841Z,41.60
2018-06-14T20:56:40.358Z,42.50
2018-06-14T20:59:08.801Z,42.40
2018-06-14T21:01:37.320Z,41.90
2018-06-14T21:04:05.928Z,41.70
2018-06-14T21:06:34.433Z,41.60
2018-06-14T21:09:02.988Z,41.40
2018-06-14T21:11:31.464Z,41.50
2018-06-14T21:14:00.010Z,42.40
2018-06-14T21:16:28.507Z,43.10
2018-06-14T21:18:57.198Z,42.90
2018-06-14T21:21:25.660Z,42.30
2018-06-14T21:23:54.093Z,42.70
2018-06-14T21:26:23.558Z,42.80
2018-06-14T21:28:52.013Z,43.60
2018-06-14T21:31:20.485Z,42.80
2018-06-14T21:33:48.906Z,42.70
2018-06-14T21:36:17.432Z,42.10
2018-06-14T21:38:45.924Z,42.90
2018-06-14T21:41:14.453Z,43.80
2018-06-14T21:43:43.556Z,43.20
2018-06-14T21:46:12.066Z,43.50
2018-06-14T21:51:08.836Z,42.60
2018-06-14T21:53:37.311Z,43.50
2018-06-14T21:56:05.893Z,44.10
2018-06-14T21:58:34.364Z,44.90
2018-06-14T22:01:02.896Z,44.70
2018-06-14T22:03:36.677Z,44.70
2018-06-14T22:06:05.146Z,45.20
2018-06-14T22:08:33.564Z,44.40
2018-06-14T22:11:01.985Z,44.70
2018-06-14T22:13:30.455Z,45.30
2018-06-14T22:15:58.992Z,45.80
2018-06-14T22:18:27.512Z,45.20
2018-06-14T22:20:56.039Z,44.60
2018-06-14T22:25:52.748Z,45.70
2018-06-14T22:28:21.206Z,45.90
2018-06-14T22:30:49.656Z,46.90
2018-06-14T22:33:29.473Z,47.60
2018-06-14T22:35:57.921Z,48.70
2018-06-14T22:38:26.505Z,49.30
2018-06-14T22:40:54.939Z,49.60
2018-06-14T22:43:23.480Z,49.80
2018-06-14T22:45:51.897Z,50.40
2018-06-14T22:48:20.361Z,51.30
2018-06-14T22:51:00.169Z,49.20
2018-06-14T22:53:28.649Z,47.10
2018-06-14T22:55:57.969Z,47.90
2018-06-14T22:58:26.402Z,51.20
2018-06-14T23:01:36.477Z,52.10
2018-06-14T23:06:33.477Z,48.00
2018-06-14T23:09:11.717Z,48.50
2018-06-14T23:11:40.251Z,49.60
2018-06-14T23:14:08.653Z,50.20
2018-06-14T23:16:37.087Z,51.50
2018-06-14T23:19:05.541Z,48.30
2018-06-14T23:21:34.066Z,49.80
2018-06-14T23:24:02.666Z,49.70
2018-06-14T23:26:31.302Z,48.00
2018-06-14T23:28:59.808Z,48.60
2018-06-14T23:31:28.261Z,48.60
2018-06-14T23:33:56.767Z,48.60
2018-06-14T23:36:25.217Z,48.70
2018-06-14T23:38:53.688Z,48.80
2018-06-14T23:41:22.125Z,49.60
2018-06-14T23:43:50.653Z,50.80
2018-06-14T23:46:19.162Z,49.80
2018-06-14T23:48:47.618Z,49.90
2018-06-14T23:51:16.256Z,52.10
2018-06-14T23:53:44.705Z,51.80
2018-06-14T23:56:13.157Z,51.70
2018-06-14T23:58:41.585Z,51.30
